Time;durP1;ratioP1;P1;durP2;ratioP2;P2;SDS_P1;SDS_P2;PMS_P1;PMS_P2;Temp;Humidity;BMP_temperature;BMP_pressure;BME280_temperature;BME280_humidity;BME280_pressure;Samples;Min_cycle;Max_cycle;Signal;HPM_P1;HPM_P2
2021/12/11 00:02:06;;;;;;;85.95;44.50;;;2.20;99.90;;;;;;5050270;28;20449;-83
2021/12/11 00:04:37;;;;;;;82.13;44.70;;;2.20;99.90;;;;;;5053448;28;20453;-83
2021/12/11 00:07:08;;;;;;;91.75;44.90;;;2.20;99.90;;;;;;5049901;28;20414;-83
2021/12/11 00:09:40;;;;;;;78.40;42.40;;;2.10;99.90;;;;;;5048461;28;21144;-84
2021/12/11 00:12:26;;;;;;;92.50;46.28;;;2.10;99.90;;;;;;5058065;28;20477;-82
2021/12/11 00:14:58;;;;;;;95.53;45.00;;;2.10;99.90;;;;;;5055399;28;20382;-83
2021/12/11 00:17:31;;;;;;;102.75;45.72;;;2.10;99.90;;;;;;5055851;28;21076;-85
2021/12/11 00:19:57;;;;;;;82.70;43.80;;;2.10;99.90;;;;;;5060370;28;20443;-84
2021/12/11 00:22:28;;;;;;;116.82;50.20;;;2.10;99.90;;;;;;5052636;28;20438;-84
2021/12/11 00:25:09;;;;;;;87.03;44.67;;;2.10;99.90;;;;;;5054576;28;20419;-84
2021/12/11 00:27:38;;;;;;;102.13;45.45;;;2.00;99.90;;;;;;5054595;28;20404;-82
2021/12/11 00:30:10;;;;;;;113.43;49.00;;;2.00;99.90;;;;;;5059244;28;20422;-84
2021/12/11 00:32:37;;;;;;;108.60;49.17;;;2.00;99.90;;;;;;5054170;28;20390;-83
2021/12/11 00:35:10;;;;;;;115.22;50.20;;;1.90;99.90;;;;;;5055750;28;20390;-84
2021/12/11 00:37:38;;;;;;;107.78;48.00;;;1.90;99.90;;;;;;5060126;28;20438;-83
2021/12/11 00:40:24;;;;;;;100.28;46.60;;;1.80;99.90;;;;;;5057748;28;20470;-83
2021/12/11 00:43:02;;;;;;;123.97;49.08;;;1.90;99.90;;;;;;5059136;28;20394;-82
2021/12/11 00:45:32;;;;;;;104.70;48.15;;;1.90;99.90;;;;;;5053783;28;20477;-82
2021/12/11 00:48:15;;;;;;;101.05;46.80;;;1.90;99.90;;;;;;5054628;28;20430;-83
2021/12/11 00:50:48;;;;;;;106.17;48.63;;;2.00;99.90;;;;;;5059131;28;20400;-82
2021/12/11 00:53:46;;;;;;;89.15;43.55;;;2.10;99.90;;;;;;5058852;28;20435;-83
2021/12/11 00:56:22;;;;;;;93.25;45.75;;;2.10;99.90;;;;;;5052942;28;20403;-81
2021/12/11 00:59:00;;;;;;;110.90;48.33;;;2.10;99.90;;;;;;5051311;28;20470;-84
2021/12/11 01:01:35;;;;;;;127.35;52.88;;;2.10;99.90;;;;;;5057220;28;20390;-82
2021/12/11 01:04:07;;;;;;;102.60;48.20;;;2.10;99.90;;;;;;5058545;28;20752;-82
2021/12/11 01:06:56;;;;;;;101.93;47.45;;;2.10;99.90;;;;;;5056017;28;20421;-82
2021/12/11 01:09:26;;;;;;;121.43;49.28;;;2.10;99.90;;;;;;5052493;28;20399;-83
2021/12/11 01:12:13;;;;;;;94.20;45.22;;;2.20;99.90;;;;;;5054561;28;20476;-83
2021/12/11 01:14:51;;;;;;;113.80;48.42;;;2.10;99.90;;;;;;5060941;28;20927;-82
2021/12/11 01:17:23;;;;;;;100.72;46.33;;;2.10;99.90;;;;;;5048286;28;20403;-82
2021/12/11 01:19:54;;;;;;;94.70;45.65;;;2.10;99.90;;;;;;5054213;28;20393;-82
2021/12/11 01:22:35;;;;;;;98.30;47.40;;;2.10;99.90;;;;;;5060493;28;20453;-83
2021/12/11 01:25:18;;;;;;;105.43;48.50;;;2.10;99.90;;;;;;5048507;28;20417;-82
2021/12/11 01:27:53;;;;;;;120.13;48.83;;;2.10;99.90;;;;;;5048227;28;20388;-83
2021/12/11 01:30:47;;;;;;;91.55;44.50;;;2.20;99.90;;;;;;5052118;28;20813;-82
2021/12/11 01:33:13;;;;;;;97.63;47.72;;;2.20;99.90;;;;;;5040945;28;20396;-82
2021/12/11 01:35:40;;;;;;;118.50;50.43;;;2.10;99.90;;;;;;5051103;28;20376;-82
2021/12/11 01:38:18;;;;;;;90.90;46.35;;;2.10;99.90;;;;;;5050359;28;20723;-82
2021/12/11 01:40:47;;;;;;;114.00;48.58;;;2.10;99.90;;;;;;5051009;28;20384;-83
2021/12/11 01:43:14;;;;;;;108.57;48.20;;;2.20;99.90;;;;;;5050050;28;20384;-82
2021/12/11 01:45:46;;;;;;;91.70;44.33;;;2.20;99.90;;;;;;5057663;28;20817;-82
2021/12/11 01:48:19;;;;;;;103.45;46.05;;;2.20;99.90;;;;;;5070588;28;20824;-82
2021/12/11 01:50:49;;;;;;;116.23;50.67;;;2.20;99.90;;;;;;5070149;28;20461;-82
2021/12/11 01:53:20;;;;;;;116.40;48.70;;;2.20;99.90;;;;;;5070067;28;20462;-83
2021/12/11 01:55:57;;;;;;;107.85;43.95;;;2.20;99.90;;;;;;5070725;28;20874;-83
2021/12/11 01:58:50;;;;;;;111.03;45.95;;;2.30;99.90;;;;;;5068507;28;20890;-83
2021/12/11 02:01:23;;;;;;;90.60;43.15;;;2.20;99.90;;;;;;5061957;28;20397;-82
2021/12/11 02:03:52;;;;;;;108.97;48.30;;;2.20;99.90;;;;;;5050780;28;20398;-83
2021/12/11 02:06:19;;;;;;;107.37;45.37;;;2.30;99.90;;;;;;5049454;28;20411;-82
2021/12/11 02:08:46;;;;;;;128.55;49.25;;;2.40;99.90;;;;;;5050803;28;20411;-82
2021/12/11 02:11:21;;;;;;;89.55;43.95;;;2.20;99.90;;;;;;5054340;28;20405;-82
2021/12/11 02:13:56;;;;;;;112.35;46.63;;;2.10;99.90;;;;;;5051837;28;20392;-82
2021/12/11 02:16:42;;;;;;;86.82;40.65;;;2.00;99.90;;;;;;5058106;28;20396;-82
2021/12/11 02:19:30;;;;;;;90.15;44.20;;;2.00;99.90;;;;;;5049340;28;20410;-82
2021/12/11 02:22:12;;;;;;;106.18;45.90;;;2.00;99.90;;;;;;5064346;28;20401;-83
2021/12/11 02:24:51;;;;;;;105.45;46.05;;;2.10;99.90;;;;;;5069542;28;20880;-81
2021/12/11 02:27:21;;;;;;;111.65;49.03;;;2.10;99.90;;;;;;5056093;28;20889;-82
2021/12/11 02:30:12;;;;;;;89.70;44.17;;;2.00;99.90;;;;;;5063102;28;20394;-81
2021/12/11 02:32:42;;;;;;;130.20;49.23;;;2.10;99.90;;;;;;5069169;28;20435;-82
2021/12/11 02:35:17;;;;;;;131.88;50.60;;;2.10;99.90;;;;;;5067543;28;20884;-81
2021/12/11 02:37:55;;;;;;;138.52;51.25;;;2.10;99.90;;;;;;5069211;28;20401;-83
2021/12/11 02:40:49;;;;;;;114.80;47.08;;;2.00;99.90;;;;;;5069036;28;20374;-81
2021/12/11 02:43:22;;;;;;;112.35;41.38;;;2.00;99.90;;;;;;5053608;28;20410;-83
2021/12/11 02:46:17;;;;;;;111.20;42.70;;;2.00;99.90;;;;;;5050248;28;20406;-82
2021/12/11 02:48:54;;;;;;;77.55;39.22;;;2.10;99.90;;;;;;5048202;28;20443;-82
2021/12/11 02:51:40;;;;;;;84.30;41.88;;;2.00;99.90;;;;;;5048571;28;20391;-82
2021/12/11 02:54:08;;;;;;;115.28;45.63;;;1.90;99.90;;;;;;5067225;28;20385;-82
2021/12/11 02:56:39;;;;;;;193.20;52.72;;;1.90;99.90;;;;;;5068892;28;20776;-81
2021/12/11 02:59:10;;;;;;;152.55;48.30;;;1.80;99.90;;;;;;5061607;28;20394;-83
2021/12/11 03:01:45;;;;;;;91.33;42.07;;;1.80;99.90;;;;;;5061801;28;20463;-83
2021/12/11 03:04:22;;;;;;;128.48;47.72;;;1.80;99.90;;;;;;5055933;28;20446;-81
2021/12/11 03:06:50;;;;;;;138.73;49.60;;;1.80;99.90;;;;;;5053321;28;20408;-82
2021/12/11 03:09:20;;;;;;;89.22;42.00;;;1.80;99.90;;;;;;5049636;28;20449;-83
2021/12/11 03:11:46;;;;;;;167.63;49.72;;;1.80;99.90;;;;;;5048932;28;20896;-83
2021/12/11 03:14:14;;;;;;;162.85;49.75;;;1.80;99.90;;;;;;5060727;28;20506;-82
2021/12/11 03:16:41;;;;;;;87.70;42.53;;;1.80;99.90;;;;;;5067142;28;20390;-82
2021/12/11 03:19:10;;;;;;;156.38;49.50;;;1.90;99.90;;;;;;5066452;28;20437;-82
2021/12/11 03:21:37;;;;;;;101.13;44.70;;;1.90;99.90;;;;;;5048271;28;20411;-81
2021/12/11 03:24:05;;;;;;;87.53;42.78;;;1.90;99.90;;;;;;5050734;28;20434;-82
2021/12/11 03:26:32;;;;;;;116.50;47.58;;;1.90;99.90;;;;;;5065981;28;20402;-83
2021/12/11 03:28:59;;;;;;;130.73;48.55;;;1.90;99.90;;;;;;5051140;28;20390;-81
2021/12/11 03:31:25;;;;;;;129.88;46.97;;;1.90;99.90;;;;;;5062124;28;20375;-83
2021/12/11 03:33:56;;;;;;;153.17;48.57;;;1.90;99.90;;;;;;5066801;28;20384;-82
2021/12/11 03:36:24;;;;;;;139.70;50.10;;;1.90;99.90;;;;;;5066945;28;20390;-83
2021/12/11 03:38:57;;;;;;;194.18;48.15;;;2.00;99.90;;;;;;5068156;28;20401;-82
2021/12/11 03:41:27;;;;;;;157.33;47.97;;;1.90;99.90;;;;;;5052788;28;20916;-83
2021/12/11 03:43:53;;;;;;;175.20;47.45;;;1.90;99.90;;;;;;5060457;28;20378;-84
2021/12/11 03:46:19;;;;;;;123.60;41.33;;;1.90;99.90;;;;;;5066759;28;20452;-84
2021/12/11 03:48:53;;;;;;;141.18;44.03;;;1.80;99.90;;;;;;5066431;28;20946;-83
2021/12/11 03:51:23;;;;;;;142.77;44.67;;;1.70;99.90;;;;;;5066951;28;20872;-83
2021/12/11 03:53:48;;;;;;;168.65;47.63;;;1.70;99.90;;;;;;5066770;28;20884;-82
2021/12/11 03:56:16;;;;;;;191.53;44.47;;;1.70;99.90;;;;;;5066338;28;20398;-82
2021/12/11 03:58:49;;;;;;;152.20;47.47;;;1.70;99.90;;;;;;5050984;28;20742;-82
2021/12/11 04:01:25;;;;;;;139.00;45.40;;;1.70;99.90;;;;;;5049025;28;20464;-83
2021/12/11 04:03:55;;;;;;;174.85;47.90;;;1.70;99.90;;;;;;5047356;28;20899;-83
2021/12/11 04:06:21;;;;;;;192.85;46.35;;;1.70;99.90;;;;;;5060227;28;20402;-83
2021/12/11 04:08:48;;;;;;;137.13;41.90;;;1.70;99.90;;;;;;5065756;28;20390;-83
2021/12/11 04:11:24;;;;;;;108.25;41.08;;;1.70;99.90;;;;;;5053901;28;20961;-83
2021/12/11 04:13:59;;;;;;;161.32;43.45;;;1.60;99.90;;;;;;5060964;28;20386;-83
2021/12/11 04:16:25;;;;;;;154.43;44.58;;;1.60;99.90;;;;;;5050667;28;20424;-81
2021/12/11 04:18:51;;;;;;;256.52;49.55;;;1.60;99.90;;;;;;5066892;28;20378;-83
2021/12/11 04:21:18;;;;;;;223.73;46.28;;;1.60;99.90;;;;;;5067992;28;20891;-83
2021/12/11 04:23:44;;;;;;;112.10;35.80;;;1.50;99.90;;;;;;5066245;28;20472;-82
2021/12/11 04:26:10;;;;;;;119.60;43.10;;;1.60;99.90;;;;;;5050409;28;20819;-83
2021/12/11 04:28:39;;;;;;;159.30;43.30;;;1.60;99.90;;;;;;5048269;28;20415;-82
2021/12/11 04:31:14;;;;;;;198.55;45.33;;;1.50;99.90;;;;;;5047416;28;20953;-83
2021/12/11 04:33:44;;;;;;;134.63;41.22;;;1.40;99.90;;;;;;5048526;28;20407;-83
2021/12/11 04:36:20;;;;;;;119.68;39.60;;;1.30;99.90;;;;;;5054269;28;20478;-83
2021/12/11 04:38:47;;;;;;;166.98;43.92;;;1.40;99.90;;;;;;5051821;28;20413;-82
2021/12/11 04:41:18;;;;;;;111.75;41.55;;;1.30;99.90;;;;;;5066234;28;20750;-83
2021/12/11 04:43:47;;;;;;;107.95;38.90;;;1.30;99.90;;;;;;5062979;28;20399;-83
2021/12/11 04:46:13;;;;;;;107.95;40.67;;;1.20;99.90;;;;;;5048439;28;20414;-82
2021/12/11 04:49:00;;;;;;;109.45;40.22;;;1.10;99.90;;;;;;5048221;28;20433;-83
2021/12/11 04:51:43;;;;;;;95.80;37.27;;;1.10;99.90;;;;;;5053966;28;20481;-84
2021/12/11 04:54:36;;;;;;;100.18;35.30;;;1.30;99.90;;;;;;5064635;28;20397;-83
2021/12/11 05:10:43;;;;;;;181.93;43.25;;;1.10;99.90;;;;;;5051651;28;20387;-83
2021/12/11 05:13:09;;;;;;;176.75;43.20;;;1.10;99.90;;;;;;5051762;28;20392;-83
2021/12/11 05:15:39;;;;;;;110.55;39.17;;;1.20;99.90;;;;;;5051443;28;20384;-82
2021/12/11 05:18:10;;;;;;;130.07;39.83;;;1.10;99.90;;;;;;5068525;28;20386;-83
2021/12/11 05:20:38;;;;;;;71.00;31.80;;;1.20;99.90;;;;;;5069387;28;20435;-82
2021/12/11 05:23:04;;;;;;;64.80;32.67;;;1.10;99.90;;;;;;5069416;28;20891;-83
2021/12/11 05:25:30;;;;;;;113.50;35.65;;;1.10;99.90;;;;;;5052277;28;20483;-84
2021/12/11 05:27:57;;;;;;;120.45;36.97;;;1.20;99.90;;;;;;5050493;28;20433;-82
2021/12/11 05:30:32;;;;;;;114.10;36.63;;;1.20;99.90;;;;;;5052018;28;20529;-83
2021/12/11 05:32:59;;;;;;;100.75;37.85;;;1.20;99.90;;;;;;5051191;28;20380;-83
2021/12/11 05:35:27;;;;;;;73.73;32.37;;;1.20;99.90;;;;;;5069409;28;20523;-82
2021/12/11 05:37:53;;;;;;;118.55;39.30;;;1.10;99.90;;;;;;5065364;28;20415;-83
2021/12/11 05:40:22;;;;;;;94.65;35.22;;;1.10;99.90;;;;;;5069134;28;20472;-83
2021/12/11 05:42:49;;;;;;;80.95;34.72;;;1.20;99.90;;;;;;5069393;28;20374;-82
2021/12/11 05:45:16;;;;;;;103.20;37.70;;;1.20;99.90;;;;;;5056699;28;20411;-82
2021/12/11 05:47:42;;;;;;;89.32;37.42;;;1.20;99.90;;;;;;5050037;28;20399;-83
2021/12/11 05:50:11;;;;;;;99.53;37.20;;;1.20;99.90;;;;;;5051267;28;20745;-83
2021/12/11 05:52:37;;;;;;;122.20;38.25;;;1.20;99.90;;;;;;5049687;28;20380;-82
2021/12/11 05:55:08;;;;;;;83.03;33.88;;;1.10;99.90;;;;;;5051134;28;20398;-82
2021/12/11 05:57:36;;;;;;;82.45;33.88;;;1.10;99.90;;;;;;5049685;28;20502;-83
2021/12/11 06:00:07;;;;;;;86.03;33.20;;;1.10;99.90;;;;;;5056375;28;20382;-83
2021/12/11 06:02:33;;;;;;;113.15;34.30;;;1.10;99.90;;;;;;5066910;28;20424;-82
2021/12/11 06:04:59;;;;;;;92.28;32.67;;;1.30;99.90;;;;;;5070172;28;20390;-83
2021/12/11 06:07:28;;;;;;;89.38;31.67;;;1.20;99.90;;;;;;5062325;28;20396;-83
2021/12/11 06:09:59;;;;;;;79.05;33.33;;;1.20;99.90;;;;;;5068513;28;20390;-83
2021/12/11 06:12:25;;;;;;;87.38;33.88;;;1.20;99.90;;;;;;5070485;28;20764;-83
2021/12/11 06:14:53;;;;;;;74.93;32.55;;;1.20;99.90;;;;;;5055814;28;20423;-83
2021/12/11 06:17:26;;;;;;;96.95;35.38;;;1.10;99.90;;;;;;5058483;28;20421;-83
2021/12/11 06:19:54;;;;;;;89.27;36.53;;;1.10;99.90;;;;;;5055254;28;20380;-83
2021/12/11 06:22:22;;;;;;;125.00;39.17;;;1.20;99.90;;;;;;5057346;28;20394;-84
2021/12/11 06:24:49;;;;;;;94.82;37.72;;;1.20;99.90;;;;;;5069257;28;20400;-83
2021/12/11 06:27:15;;;;;;;86.57;37.23;;;1.10;99.90;;;;;;5069419;28;20406;-83
2021/12/11 06:29:41;;;;;;;121.22;40.60;;;1.10;99.90;;;;;;5068159;28;20872;-83
2021/12/11 06:32:07;;;;;;;101.13;39.25;;;1.10;99.90;;;;;;5067528;28;20416;-83
2021/12/11 06:34:34;;;;;;;96.40;38.53;;;1.10;99.90;;;;;;5050164;28;20387;-83
2021/12/11 06:37:01;;;;;;;82.93;35.25;;;1.10;99.90;;;;;;5053662;28;20393;-83
2021/12/11 06:39:27;;;;;;;91.13;36.13;;;1.20;99.90;;;;;;5048742;28;20817;-83
2021/12/11 06:41:55;;;;;;;113.55;39.28;;;1.20;99.90;;;;;;5048793;28;20411;-83
2021/12/11 06:44:27;;;;;;;88.10;33.85;;;1.10;99.90;;;;;;5050295;28;20376;-83
2021/12/11 06:46:58;;;;;;;71.40;33.53;;;1.20;99.90;;;;;;5057146;28;20409;-83
2021/12/11 06:49:26;;;;;;;71.97;32.20;;;1.10;99.90;;;;;;5066374;28;20394;-83
2021/12/11 06:51:52;;;;;;;68.57;30.52;;;1.10;99.90;;;;;;5061227;28;20924;-83
2021/12/11 06:54:18;;;;;;;91.10;32.15;;;1.10;99.90;;;;;;5063840;28;20755;-83
2021/12/11 06:56:44;;;;;;;69.80;29.90;;;1.00;99.90;;;;;;5067661;28;20380;-83
2021/12/11 06:59:10;;;;;;;63.50;29.75;;;0.90;99.90;;;;;;5069313;28;20405;-83
2021/12/11 07:01:37;;;;;;;57.80;28.60;;;0.90;99.90;;;;;;5067744;28;20948;-83
2021/12/11 07:04:07;;;;;;;68.32;30.15;;;1.00;99.90;;;;;;5061326;28;20383;-83
2021/12/11 07:06:35;;;;;;;58.20;29.13;;;1.00;99.90;;;;;;5055192;28;20406;-83
2021/12/11 07:09:04;;;;;;;72.85;30.80;;;1.00;99.90;;;;;;5068421;28;20378;-84
2021/12/11 07:11:32;;;;;;;65.25;31.25;;;1.10;99.90;;;;;;5066430;28;20752;-83
2021/12/11 07:13:58;;;;;;;78.22;33.13;;;1.00;99.90;;;;;;5069096;28;20443;-83
2021/12/11 07:16:24;;;;;;;66.55;32.03;;;1.00;99.90;;;;;;5067589;28;20382;-83
2021/12/11 07:18:50;;;;;;;91.93;34.73;;;1.00;99.90;;;;;;5059605;28;20753;-83
2021/12/11 07:21:16;;;;;;;62.20;30.77;;;1.00;99.90;;;;;;5050023;28;20400;-84
2021/12/11 07:23:47;;;;;;;66.35;32.05;;;1.00;99.90;;;;;;5048147;28;20387;-84
2021/12/11 07:26:18;;;;;;;83.50;35.65;;;0.90;99.90;;;;;;5049160;28;20407;-83
2021/12/11 07:28:49;;;;;;;85.72;35.63;;;0.80;99.90;;;;;;5047297;28;20995;-83
2021/12/11 07:31:16;;;;;;;72.38;34.47;;;0.70;99.90;;;;;;5048009;28;20396;-84
2021/12/11 07:33:42;;;;;;;81.93;36.60;;;0.80;99.90;;;;;;5049064;28;20389;-82
2021/12/11 07:36:08;;;;;;;67.78;34.15;;;0.70;99.90;;;;;;5050247;28;20402;-83
2021/12/11 07:38:34;;;;;;;84.35;36.85;;;0.80;99.90;;;;;;5056074;28;20389;-83
2021/12/11 07:41:05;;;;;;;84.97;35.35;;;0.70;99.90;;;;;;5056427;28;20430;-83
2021/12/11 07:43:31;;;;;;;73.30;33.50;;;0.80;99.90;;;;;;5057156;28;20386;-83
2021/12/11 07:45:57;;;;;;;85.13;35.25;;;0.70;99.90;;;;;;5059672;28;20485;-83
2021/12/11 07:48:23;;;;;;;75.33;35.27;;;0.80;99.90;;;;;;5051477;28;20476;-83
2021/12/11 07:50:49;;;;;;;76.63;34.53;;;0.70;99.90;;;;;;5056141;28;20485;-83
2021/12/11 07:53:17;;;;;;;84.70;34.47;;;0.70;99.90;;;;;;5056163;28;20769;-82
2021/12/11 07:55:43;;;;;;;86.97;35.85;;;0.70;99.90;;;;;;5055780;28;20399;-82
2021/12/11 07:58:09;;;;;;;77.30;35.35;;;0.80;99.90;;;;;;5056426;28;20385;-82
2021/12/11 08:00:37;;;;;;;73.82;35.03;;;0.80;99.90;;;;;;5058094;28;20387;-83
2021/12/11 08:03:05;;;;;;;72.10;34.88;;;0.70;99.90;;;;;;5055186;28;20411;-83
2021/12/11 08:05:32;;;;;;;58.83;31.88;;;0.70;99.90;;;;;;5057181;28;20501;-83
2021/12/11 08:08:00;;;;;;;71.97;32.80;;;0.80;99.90;;;;;;5056155;28;20813;-84
2021/12/11 08:10:27;;;;;;;77.87;30.53;;;0.90;99.90;;;;;;5056791;28;20430;-83
2021/12/11 08:12:53;;;;;;;57.55;29.52;;;0.80;99.90;;;;;;5052131;28;20479;-84
2021/12/11 08:15:20;;;;;;;59.78;30.38;;;0.70;99.90;;;;;;5055212;28;20389;-82
2021/12/11 08:17:53;;;;;;;67.47;31.63;;;0.70;99.90;;;;;;5058867;28;20377;-84
2021/12/11 08:20:19;;;;;;;60.93;30.80;;;0.70;99.90;;;;;;5059164;28;20776;-84
2021/12/11 08:22:45;;;;;;;68.80;31.17;;;0.70;99.90;;;;;;5055892;28;20478;-82
2021/12/11 08:25:11;;;;;;;66.50;30.98;;;0.70;99.90;;;;;;5054722;28;20518;-83
2021/12/11 08:27:37;;;;;;;56.72;30.13;;;0.60;99.90;;;;;;5052304;28;20387;-83
2021/12/11 08:30:06;;;;;;;58.15;30.45;;;0.70;99.90;;;;;;5052574;28;20904;-84
2021/12/11 08:32:32;;;;;;;48.28;27.65;;;0.80;99.90;;;;;;5052258;28;20850;-83
2021/12/11 08:34:58;;;;;;;52.05;27.10;;;1.00;99.90;;;;;;5049818;28;20394;-84
2021/12/11 08:37:24;;;;;;;51.35;28.10;;;1.00;99.90;;;;;;5053854;28;20397;-84
2021/12/11 08:39:50;;;;;;;54.22;28.88;;;1.20;99.90;;;;;;5067929;28;20389;-83
2021/12/11 08:42:20;;;;;;;52.97;27.67;;;1.20;99.90;;;;;;5071298;28;20374;-84
2021/12/11 08:44:53;;;;;;;52.05;26.80;;;1.20;99.90;;;;;;5068144;28;20378;-84
2021/12/11 08:47:22;;;;;;;72.30;28.55;;;1.20;99.90;;;;;;5070045;28;20469;-84
2021/12/11 08:49:50;;;;;;;54.88;27.02;;;1.10;99.90;;;;;;5061499;28;20390;-84
2021/12/11 08:52:27;;;;;;;45.83;26.13;;;1.20;99.90;;;;;;5052448;28;20437;-84
2021/12/11 08:54:55;;;;;;;46.57;25.30;;;1.30;99.90;;;;;;5071393;28;20827;-83
2021/12/11 08:57:24;;;;;;;41.07;24.27;;;1.20;99.90;;;;;;5066804;28;20828;-83
2021/12/11 08:59:54;;;;;;;44.50;24.25;;;1.10;99.90;;;;;;5071496;28;20382;-83
2021/12/11 09:02:37;;;;;;;41.33;23.07;;;1.20;99.90;;;;;;5070013;28;20378;-84
2021/12/11 09:05:07;;;;;;;41.77;23.27;;;1.10;99.90;;;;;;5067946;28;20441;-82
2021/12/11 09:07:40;;;;;;;44.95;24.02;;;1.10;99.90;;;;;;5071531;28;20465;-84
2021/12/11 09:10:20;;;;;;;41.33;23.70;;;1.10;99.90;;;;;;5069744;28;20390;-83
2021/12/11 09:13:00;;;;;;;43.80;24.57;;;1.00;99.90;;;;;;5055037;28;20410;-83
2021/12/11 09:15:33;;;;;;;41.60;23.77;;;0.90;99.90;;;;;;5069951;28;20386;-85
2021/12/11 09:18:10;;;;;;;44.35;24.85;;;1.00;99.90;;;;;;5071141;28;20862;-84
2021/12/11 09:20:52;;;;;;;48.75;24.65;;;1.20;99.90;;;;;;5051565;28;20446;-84
2021/12/11 09:23:27;;;;;;;46.00;23.90;;;1.30;99.90;;;;;;5066018;28;20378;-84
2021/12/11 09:25:56;;;;;;;35.95;22.58;;;1.30;99.90;;;;;;5069399;28;20416;-82
2021/12/11 09:28:40;;;;;;;42.42;24.58;;;1.30;99.90;;;;;;5065296;28;20395;-81
2021/12/11 09:31:23;;;;;;;43.88;24.27;;;1.50;99.90;;;;;;5057942;28;20388;-82
2021/12/11 09:33:54;;;;;;;41.65;24.52;;;1.50;99.90;;;;;;5058580;28;20429;-83
2021/12/11 09:36:30;;;;;;;34.30;21.75;;;1.60;99.90;;;;;;5050801;28;20453;-84
2021/12/11 09:39:07;;;;;;;34.90;22.63;;;1.70;99.90;;;;;;5049613;28;20406;-84
2021/12/11 09:41:33;;;;;;;42.97;24.73;;;1.80;99.90;;;;;;5048279;28;20926;-82
2021/12/11 09:44:29;;;;;;;36.58;24.05;;;1.80;99.90;;;;;;5050957;28;20762;-83
2021/12/11 09:47:00;;;;;;;37.45;24.58;;;1.80;99.90;;;;;;5068420;28;20903;-83
2021/12/11 09:49:29;;;;;;;33.05;23.52;;;1.70;99.90;;;;;;5068253;28;20420;-82
2021/12/11 09:52:02;;;;;;;38.42;24.27;;;1.60;99.90;;;;;;5068782;28;20382;-83
2021/12/11 09:54:31;;;;;;;35.25;23.75;;;1.50;99.90;;;;;;5068493;28;20464;-83
2021/12/11 09:57:05;;;;;;;40.55;24.42;;;1.60;99.90;;;;;;5069446;28;20847;-83
2021/12/11 09:59:34;;;;;;;38.20;24.67;;;1.70;99.90;;;;;;5068424;28;20918;-83
2021/12/11 10:02:05;;;;;;;37.95;25.08;;;1.70;99.90;;;;;;5052962;28;20383;-83
2021/12/11 10:04:39;;;;;;;41.90;25.90;;;1.70;99.90;;;;;;5048822;28;20970;-83
2021/12/11 10:09:48;;;;;;;45.05;26.38;;;1.80;99.90;;;;;;5050462;28;20384;-83
2021/12/11 10:12:21;;;;;;;40.92;25.95;;;1.80;99.90;;;;;;5062749;28;20390;-82
2021/12/11 10:14:51;;;;;;;38.60;25.60;;;1.90;99.90;;;;;;5069265;28;20729;-83
2021/12/11 10:17:22;;;;;;;36.17;24.88;;;2.00;99.90;;;;;;5063309;28;20886;-83
2021/12/11 10:19:51;;;;;;;41.88;26.35;;;2.10;99.90;;;;;;5059922;28;20400;-83
2021/12/11 10:22:25;;;;;;;40.90;27.05;;;2.20;99.90;;;;;;5058645;28;20397;-83
2021/12/11 10:24:52;;;;;;;42.33;27.85;;;2.20;99.90;;;;;;5052100;28;20978;-82
2021/12/11 10:27:22;;;;;;;50.50;31.02;;;2.20;99.90;;;;;;5056417;28;20398;-82
2021/12/11 10:29:50;;;;;;;48.50;30.33;;;2.00;99.90;;;;;;5049916;28;20390;-83
2021/12/11 10:32:20;;;;;;;52.17;30.88;;;1.90;99.90;;;;;;5048409;28;20392;-83
2021/12/11 10:34:50;;;;;;;52.42;32.00;;;2.00;99.90;;;;;;5048405;28;20384;-83
2021/12/11 10:37:25;;;;;;;52.07;32.33;;;2.00;99.90;;;;;;5050471;28;20400;-86
2021/12/11 10:39:55;;;;;;;53.70;33.73;;;1.90;99.90;;;;;;5051647;28;20396;-84
2021/12/11 10:42:21;;;;;;;51.20;31.77;;;2.10;99.90;;;;;;5054593;28;20407;-82
2021/12/11 10:45:04;;;;;;;52.70;33.60;;;2.10;99.90;;;;;;5060011;28;20374;-83
2021/12/11 10:47:41;;;;;;;48.38;31.58;;;2.00;99.90;;;;;;5047200;28;20388;-83
2021/12/11 10:50:17;;;;;;;57.17;34.33;;;2.10;99.90;;;;;;5048265;28;20380;-83
2021/12/11 10:52:43;;;;;;;57.13;34.90;;;2.20;99.90;;;;;;5053900;28;20792;-83
2021/12/11 10:55:12;;;;;;;61.43;34.43;;;2.20;99.90;;;;;;5049383;28;20382;-85
2021/12/11 10:57:38;;;;;;;56.25;33.50;;;2.10;99.90;;;;;;5054553;28;20442;-82
2021/12/11 11:00:10;;;;;;;58.22;34.08;;;2.10;99.90;;;;;;5058255;28;20925;-82
2021/12/11 11:02:36;;;;;;;58.30;35.28;;;2.10;99.90;;;;;;5057040;28;20390;-81
2021/12/11 11:05:18;;;;;;;54.08;33.72;;;2.10;99.90;;;;;;5053495;28;20501;-81
2021/12/11 11:07:45;;;;;;;58.05;35.00;;;2.30;99.90;;;;;;5060188;28;20432;-82
2021/12/11 11:10:19;;;;;;;60.42;34.25;;;2.30;99.90;;;;;;5051945;28;20615;-83
2021/12/11 11:12:46;;;;;;;59.03;34.55;;;2.30;99.90;;;;;;5050646;28;20483;-82
2021/12/11 11:15:13;;;;;;;59.33;34.58;;;2.30;99.90;;;;;;5059929;28;20722;-83
2021/12/11 11:17:39;;;;;;;57.33;34.40;;;2.20;99.90;;;;;;5058858;28;20386;-83
2021/12/11 11:23:06;;;;;;;56.63;34.30;;;2.30;99.90;;;;;;5090039;27;20366;-82
2021/12/11 11:25:41;;;;;;;58.72;35.13;;;2.40;99.90;;;;;;5089475;28;20417;-83
2021/12/11 11:28:10;;;;;;;58.58;35.47;;;2.50;99.90;;;;;;5082797;28;20898;-82
2021/12/11 11:30:44;;;;;;;59.55;35.08;;;2.40;99.90;;;;;;5083772;28;20761;-82
2021/12/11 11:33:11;;;;;;;59.05;36.25;;;2.40;99.90;;;;;;5090520;28;20389;-83
2021/12/11 11:35:42;;;;;;;61.65;36.60;;;2.50;99.90;;;;;;5091049;28;20389;-83
2021/12/11 11:38:13;;;;;;;65.65;38.03;;;2.50;99.90;;;;;;5092616;28;20417;-83
2021/12/11 11:40:41;;;;;;;66.78;38.28;;;2.50;99.90;;;;;;5079092;28;20446;-83
2021/12/11 11:43:07;;;;;;;67.18;38.70;;;2.50;99.90;;;;;;5079163;27;20867;-83
2021/12/11 11:45:33;;;;;;;66.10;38.57;;;2.50;99.90;;;;;;5083482;28;20386;-83
2021/12/11 11:47:59;;;;;;;65.95;38.53;;;2.50;99.90;;;;;;5093547;28;20738;-82
2021/12/11 11:50:30;;;;;;;66.00;37.65;;;2.50;99.90;;;;;;5078200;28;20786;-84
2021/12/11 11:52:56;;;;;;;74.18;39.78;;;2.50;99.90;;;;;;5078787;28;20412;-83
2021/12/11 11:55:30;;;;;;;69.03;38.35;;;2.30;99.90;;;;;;5086096;27;20461;-84
2021/12/11 11:57:58;;;;;;;67.30;38.17;;;2.30;99.90;;;;;;5064683;28;20391;-84
2021/12/11 12:00:42;;;;;;;70.40;39.63;;;2.30;99.90;;;;;;5084843;28;20851;-85
2021/12/11 12:03:13;;;;;;;66.40;38.70;;;2.30;99.90;;;;;;5085264;28;20387;-85
2021/12/11 12:05:42;;;;;;;69.22;38.60;;;2.40;99.90;;;;;;5083803;28;20386;-83
2021/12/11 12:08:10;;;;;;;65.75;39.20;;;2.40;99.90;;;;;;5085017;28;20420;-84
2021/12/11 12:10:36;;;;;;;64.72;38.17;;;2.40;99.90;;;;;;5083127;28;20390;-84
2021/12/11 12:13:07;;;;;;;69.05;39.13;;;2.50;99.90;;;;;;5083010;28;20401;-84
2021/12/11 12:15:38;;;;;;;69.57;41.38;;;2.60;99.90;;;;;;5085124;28;20380;-85
2021/12/11 12:18:04;;;;;;;68.03;40.13;;;2.50;99.90;;;;;;5078448;28;20881;-84
2021/12/11 12:20:30;;;;;;;69.20;40.70;;;2.40;99.90;;;;;;5063241;28;20436;-83
2021/12/11 12:22:56;;;;;;;67.13;39.78;;;2.50;99.90;;;;;;5080836;28;20828;-83
2021/12/11 12:25:22;;;;;;;60.80;37.03;;;2.40;99.90;;;;;;5084573;28;20416;-83
2021/12/11 12:27:49;;;;;;;64.97;39.13;;;2.50;99.90;;;;;;5081467;28;20875;-83
2021/12/11 12:30:19;;;;;;;66.53;40.00;;;2.60;99.90;;;;;;5082217;28;20425;-83
2021/12/11 12:32:45;;;;;;;67.47;40.65;;;2.70;99.90;;;;;;5079573;28;20751;-84
2021/12/11 12:35:15;;;;;;;60.17;38.70;;;2.60;99.90;;;;;;5065973;28;20382;-84
2021/12/11 12:37:43;;;;;;;62.30;39.30;;;2.60;99.90;;;;;;5069137;28;20390;-84
2021/12/11 12:40:17;;;;;;;57.60;37.88;;;2.70;99.90;;;;;;5068900;28;20421;-84
2021/12/11 12:42:54;;;;;;;63.10;40.35;;;2.90;99.90;;;;;;5067870;28;20433;-85
2021/12/11 12:45:32;;;;;;;63.60;39.00;;;3.00;99.90;;;;;;5069252;28;20392;-83
2021/12/11 12:48:05;;;;;;;58.10;37.73;;;2.90;99.90;;;;;;5068381;28;20382;-84
2021/12/11 12:50:49;;;;;;;62.88;39.33;;;2.90;99.90;;;;;;5068201;28;20386;-82
2021/12/11 12:53:16;;;;;;;68.20;40.60;;;2.90;99.90;;;;;;5066746;28;20408;-84
2021/12/11 12:55:48;;;;;;;69.15;41.92;;;2.90;99.90;;;;;;5069449;28;20403;-83
2021/12/11 12:58:22;;;;;;;65.25;39.30;;;2.70;99.90;;;;;;5068953;28;20402;-83
2021/12/11 13:00:56;;;;;;;68.38;41.60;;;2.70;99.90;;;;;;5067490;28;20421;-82
2021/12/11 13:03:29;;;;;;;73.28;43.55;;;2.60;99.90;;;;;;5066219;28;20386;-83
2021/12/11 13:06:06;;;;;;;71.30;42.88;;;2.50;99.90;;;;;;5067673;28;20390;-82
2021/12/11 13:08:49;;;;;;;73.95;44.00;;;2.50;99.90;;;;;;5069537;28;20874;-82
2021/12/11 13:11:30;;;;;;;80.50;45.75;;;2.50;99.90;;;;;;5064815;28;20806;-84
2021/12/11 13:13:56;;;;;;;71.70;43.05;;;2.40;99.90;;;;;;5067749;28;20471;-83